Time;durP1;ratioP1;P1;durP2;ratioP2;P2;SDS_P1;SDS_P2;PMS_P1;PMS_P2;Temp;Humidity;BMP_temperature;BMP_pressure;BME280_temperature;BME280_humidity;BME280_pressure;Samples;Min_cycle;Max_cycle;Signal;HPM_P1;HPM_P2
2023/06/29 00:00:06;;;;;;;;;;;23.80;86.30;23.90;99427.00;;;;339857;28;95628;-92
2023/06/29 00:00:20;;;;;;;;;;;23.80;86.30;23.90;99436.00;;;;342119;28;82352;-92
2023/06/29 00:00:34;;;;;;;;;;;23.80;86.20;23.90;99425.00;;;;339854;28;96480;-92
2023/06/29 00:00:46;;;;;;;;;;;23.80;86.30;23.90;99430.00;;;;342009;28;82538;-92
2023/06/29 00:00:58;;;;;;;;;;;23.80;86.30;23.90;99425.00;;;;342592;28;95376;-92
2023/06/29 00:01:10;;;;;;;;;;;23.80;86.30;23.90;99419.00;;;;341961;28;82560;-92
2023/06/29 00:01:22;;;;;;;;;;;23.80;86.20;23.70;99426.00;;;;341352;28;92076;-92
2023/06/29 00:01:35;;;;;;;;;;;23.80;86.10;23.80;99421.00;;;;344736;28;83486;-92
2023/06/29 00:01:47;;;;;;;;;;;23.80;86.10;23.80;99419.00;;;;342391;28;96745;-92
2023/06/29 00:01:59;;;;;;;;;;;23.80;86.10;23.90;99429.00;;;;342049;28;82452;-92
2023/06/29 00:02:11;;;;;;;;;;;23.80;86.10;23.90;99422.00;;;;341260;28;95692;-92
2023/06/29 00:02:25;;;;;;;;;;;23.80;86.10;23.80;99426.00;;;;343300;28;82480;-92
2023/06/29 00:02:36;;;;;;;;;;;23.80;86.10;23.80;99426.00;;;;341316;28;94657;-92
2023/06/29 00:02:48;;;;;;;;;;;23.80;86.20;23.80;99431.00;;;;339323;28;82495;-92
2023/06/29 00:03:01;;;;;;;;;;;23.80;86.40;23.80;99424.00;;;;341210;28;95906;-92
2023/06/29 00:03:13;;;;;;;;;;;23.80;86.40;23.80;99421.00;;;;344444;28;83567;-92
2023/06/29 00:03:25;;;;;;;;;;;23.80;86.40;23.80;99418.00;;;;338368;28;95037;-92
2023/06/29 00:03:41;;;;;;;;;;;23.80;86.40;23.80;99425.00;;;;340705;28;83398;-92
2023/06/29 00:03:53;;;;;;;;;;;23.80;86.30;23.90;99434.00;;;;342475;28;96981;-92
2023/06/29 00:04:05;;;;;;;;;;;23.80;86.20;23.90;99426.00;;;;343315;28;82548;-92
2023/06/29 00:04:20;;;;;;;;;;;23.80;86.30;23.80;99427.00;;;;341022;28;95324;-91
2023/06/29 00:04:34;;;;;;;;;;;23.80;86.30;23.80;99427.00;;;;339252;28;83548;-92
2023/06/29 00:04:46;;;;;;;;;;;23.80;86.30;23.90;99426.00;;;;342602;28;94836;-91
2023/06/29 00:04:58;;;;;;;;;;;23.80;86.40;23.90;99427.00;;;;340587;28;83503;-91
2023/06/29 00:05:11;;;;;;;;;;;23.80;86.30;23.80;99436.00;;;;338602;28;95726;-92
2023/06/29 00:05:22;;;;;;;;;;;23.80;86.30;23.80;99424.00;;;;343452;28;82448;-92
2023/06/29 00:05:35;;;;;;;;;;;23.80;86.20;23.80;99433.00;;;;341402;28;96527;-92
2023/06/29 00:05:47;;;;;;;;;;;23.80;86.50;23.80;99428.00;;;;340706;28;83525;-92
2023/06/29 00:06:02;;;;;;;;;;;23.80;86.40;23.80;99430.00;;;;342654;28;96354;-92
2023/06/29 00:06:14;;;;;;;;;;;23.80;86.50;23.90;99429.00;;;;342120;28;83256;-92
2023/06/29 00:06:26;;;;;;;;;;;23.80;86.40;23.80;99429.00;;;;339904;28;96444;-92
2023/06/29 00:06:38;;;;;;;;;;;23.80;86.40;23.80;99428.00;;;;342199;28;83397;-92
2023/06/29 00:06:50;;;;;;;;;;;23.80;86.50;23.80;99432.00;;;;341280;28;96725;-91
2023/06/29 00:07:02;;;;;;;;;;;23.80;86.50;23.90;99437.00;;;;339337;28;83522;-90
2023/06/29 00:07:15;;;;;;;;;;;23.80;86.40;23.80;99430.00;;;;339968;28;96906;-91
2023/06/29 00:07:27;;;;;;;;;;;23.80;86.40;23.90;99433.00;;;;343507;28;82568;-92
2023/06/29 00:07:39;;;;;;;;;;;23.80;86.30;23.80;99437.00;;;;340003;28;96376;-92
2023/06/29 00:07:51;;;;;;;;;;;23.80;86.20;23.80;99438.00;;;;340741;28;82614;-92
2023/06/29 00:08:03;;;;;;;;;;;23.80;86.20;23.80;99435.00;;;;342675;28;96534;-92
2023/06/29 00:08:15;;;;;;;;;;;23.80;86.30;23.70;99435.00;;;;340834;28;82301;-92
2023/06/29 00:08:28;;;;;;;;;;;23.80;86.40;23.80;99428.00;;;;342570;28;95011;-92
2023/06/29 00:08:40;;;;;;;;;;;23.80;86.40;23.80;99428.00;;;;342106;28;83431;-93
2023/06/29 00:08:56;;;;;;;;;;;23.80;86.40;23.80;99432.00;;;;342755;28;96547;-92
2023/06/29 00:09:08;;;;;;;;;;;23.80;86.40;23.70;99429.00;;;;342105;28;82514;-91
2023/06/29 00:09:21;;;;;;;;;;;23.80;86.30;23.70;99428.00;;;;338582;28;96570;-92
2023/06/29 00:09:34;;;;;;;;;;;23.80;86.30;23.80;99427.00;;;;339290;28;83376;-92
2023/06/29 00:09:46;;;;;;;;;;;23.80;86.40;23.80;99425.00;;;;342662;28;94826;-91
2023/06/29 00:09:57;;;;;;;;;;;23.80;86.40;23.80;99425.00;;;;344724;28;82511;-92
2023/06/29 00:10:09;;;;;;;;;;;23.80;86.50;23.80;99424.00;;;;342520;28;96115;-92
2023/06/29 00:10:24;;;;;;;;;;;23.80;87.10;23.80;99432.00;;;;341852;28;82439;-92
2023/06/29 00:10:36;;;;;;;;;;;23.80;86.40;23.70;99427.00;;;;338563;28;95945;-92
2023/06/29 00:10:47;;;;;;;;;;;23.80;86.40;23.80;99425.00;;;;341872;28;83402;-92
2023/06/29 00:11:00;;;;;;;;;;;23.80;86.50;23.80;99427.00;;;;341080;28;96627;-92
2023/06/29 00:11:12;;;;;;;;;;;23.80;86.40;23.80;99430.00;;;;341958;28;84082;-92
2023/06/29 00:11:24;;;;;;;;;;;23.80;86.50;23.80;99432.00;;;;339896;28;96294;-92
2023/06/29 00:11:36;;;;;;;;;;;23.80;86.40;23.80;99426.00;;;;343329;28;82411;-92
2023/06/29 00:11:48;;;;;;;;;;;23.80;86.40;23.80;99428.00;;;;342564;28;96074;-92
2023/06/29 00:11:59;;;;;;;;;;;23.80;86.40;23.80;99422.00;;;;339190;28;83465;-92
2023/06/29 00:12:11;;;;;;;;;;;23.80;86.40;23.90;99426.00;;;;342603;28;95768;-92
2023/06/29 00:12:23;;;;;;;;;;;23.80;86.30;23.90;99426.00;;;;341898;28;83486;-92
2023/06/29 00:12:36;;;;;;;;;;;23.80;86.40;23.90;99432.00;;;;337222;28;96727;-92
2023/06/29 00:12:48;;;;;;;;;;;23.80;86.40;23.80;99430.00;;;;340541;28;83426;-92
2023/06/29 00:12:59;;;;;;;;;;;23.80;86.40;23.80;99427.00;;;;339811;28;95895;-92
2023/06/29 00:13:11;;;;;;;;;;;23.80;86.40;23.80;99432.00;;;;344642;28;82565;-92
2023/06/29 00:13:23;;;;;;;;;;;23.80;86.40;23.80;99424.00;;;;339885;28;95753;-92
2023/06/29 00:13:35;;;;;;;;;;;23.80;86.40;23.80;99424.00;;;;340587;28;83401;-91
2023/06/29 00:13:47;;;;;;;;;;;23.80;86.40;23.80;99428.00;;;;341203;28;96629;-91
2023/06/29 00:13:59;;;;;;;;;;;23.80;86.40;23.80;99428.00;;;;340646;28;82538;-91
2023/06/29 00:14:11;;;;;;;;;;;23.80;86.40;23.80;99428.00;;;;341174;28;96317;-91
2023/06/29 00:14:23;;;;;;;;;;;23.80;86.30;23.80;99422.00;;;;340559;28;82444;-91
2023/06/29 00:14:34;;;;;;;;;;;23.80;86.30;23.70;99429.00;;;;339624;28;95615;-92
2023/06/29 00:14:46;;;;;;;;;;;23.80;86.40;23.80;99433.00;;;;343346;28;82611;-92
2023/06/29 00:14:58;;;;;;;;;;;23.80;86.40;23.80;99427.00;;;;339802;28;96758;-92
2023/06/29 00:15:10;;;;;;;;;;;23.80;86.40;23.80;99432.00;;;;343242;28;83405;-92
2023/06/29 00:15:22;;;;;;;;;;;23.80;86.50;23.80;99426.00;;;;341209;28;94956;-92
2023/06/29 00:15:34;;;;;;;;;;;23.70;86.50;23.80;99429.00;;;;341708;28;83309;-91
2023/06/29 00:15:46;;;;;;;;;;;23.70;86.50;23.80;99434.00;;;;340984;28;94974;-92
2023/06/29 00:15:58;;;;;;;;;;;23.70;86.50;23.80;99429.00;;;;343153;28;82691;-92
2023/06/29 00:16:10;;;;;;;;;;;23.70;86.50;23.80;99426.00;;;;342531;28;96327;-92
2023/06/29 00:16:23;;;;;;;;;;;23.70;86.50;23.80;99430.00;;;;339201;28;83422;-92
2023/06/29 00:16:35;;;;;;;;;;;23.80;86.60;23.80;99426.00;;;;339784;28;96507;-92
2023/06/29 00:16:50;;;;;;;;;;;23.80;86.60;23.70;99429.00;;;;343324;28;83501;-92
2023/06/29 00:17:02;;;;;;;;;;;23.70;86.60;23.70;99430.00;;;;339779;28;96520;-92
2023/06/29 00:17:15;;;;;;;;;;;23.70;86.60;23.70;99431.00;;;;340630;28;83441;-92
2023/06/29 00:17:27;;;;;;;;;;;23.70;86.70;23.70;99437.00;;;;339879;28;96170;-91
2023/06/29 00:17:39;;;;;;;;;;;23.70;86.60;23.80;99430.00;;;;339322;28;82481;-92
2023/06/29 00:17:51;;;;;;;;;;;23.70;86.60;23.80;99431.00;;;;342549;28;94132;-93
2023/06/29 00:18:03;;;;;;;;;;;23.80;86.70;23.80;99434.00;;;;341631;28;82594;-92
2023/06/29 00:18:18;;;;;;;;;;;23.70;86.60;23.80;99435.00;;;;338577;28;95096;-92
2023/06/29 00:18:29;;;;;;;;;;;23.70;86.60;23.70;99430.00;;;;343067;28;82578;-92
2023/06/29 00:18:41;;;;;;;;;;;23.80;86.60;23.70;99429.00;;;;342502;28;97010;-92
2023/06/29 00:18:54;;;;;;;;;;;23.70;86.60;23.70;99437.00;;;;341901;28;83375;-92
2023/06/29 00:19:07;;;;;;;;;;;23.70;86.60;23.70;99432.00;;;;343622;28;96375;-92
2023/06/29 00:19:20;;;;;;;;;;;23.80;86.80;23.70;99431.00;;;;339339;28;82379;-91
2023/06/29 00:19:32;;;;;;;;;;;23.70;86.70;23.80;99431.00;;;;342569;28;96474;-91
2023/06/29 00:19:45;;;;;;;;;;;23.70;86.60;23.70;99429.00;;;;345982;28;83467;-92
2023/06/29 00:19:58;;;;;;;;;;;23.70;86.70;23.70;99437.00;;;;341292;28;95523;-92
2023/06/29 00:20:10;;;;;;;;;;;23.70;86.80;23.70;99430.00;;;;341993;28;83859;-90
2023/06/29 00:20:24;;;;;;;;;;;23.70;86.90;23.70;99430.00;;;;341060;28;96566;-92
2023/06/29 00:20:36;;;;;;;;;;;23.70;87.00;23.70;99445.00;;;;343281;28;83132;-92
2023/06/29 00:20:51;;;;;;;;;;;23.70;86.90;23.70;99435.00;;;;341169;28;96095;-92
2023/06/29 00:21:04;;;;;;;;;;;23.70;86.80;23.80;99438.00;;;;343174;28;82425;-92
2023/06/29 00:21:16;;;;;;;;;;;23.70;86.80;23.80;99436.00;;;;343919;28;94933;-92
2023/06/29 00:21:28;;;;;;;;;;;23.70;86.70;23.80;99429.00;;;;340617;28;83330;-92
2023/06/29 00:21:40;;;;;;;;;;;23.70;86.70;23.70;99433.00;;;;342445;28;96929;-92
2023/06/29 00:21:52;;;;;;;;;;;23.70;86.80;23.70;99422.00;;;;343173;28;82572;-92
2023/06/29 00:22:04;;;;;;;;;;;23.70;86.70;23.70;99434.00;;;;342372;28;95328;-92
2023/06/29 00:22:16;;;;;;;;;;;23.70;86.80;23.80;99432.00;;;;343299;28;83481;-91
2023/06/29 00:22:28;;;;;;;;;;;23.70;86.80;23.80;99428.00;;;;338429;28;96240;-92
2023/06/29 00:22:40;;;;;;;;;;;23.70;86.70;23.80;99430.00;;;;343357;28;82429;-92
2023/06/29 00:22:52;;;;;;;;;;;23.70;86.70;23.80;99427.00;;;;342365;28;96129;-93
2023/06/29 00:23:04;;;;;;;;;;;23.70;87.30;23.80;99428.00;;;;341872;28;84166;-92
2023/06/29 00:23:16;;;;;;;;;;;23.80;86.80;23.80;99427.00;;;;342527;28;96350;-92
2023/06/29 00:23:28;;;;;;;;;;;23.70;86.70;23.70;99425.00;;;;344706;28;82429;-92
2023/06/29 00:23:39;;;;;;;;;;;23.70;86.70;23.70;99428.00;;;;341139;28;96612;-91
2023/06/29 00:23:53;;;;;;;;;;;23.70;86.70;23.70;99433.00;;;;343206;28;83444;-92
2023/06/29 00:24:05;;;;;;;;;;;23.70;86.80;23.80;99423.00;;;;342432;28;93868;-92
2023/06/29 00:24:17;;;;;;;;;;;23.70;86.80;23.70;99435.00;;;;343375;28;83474;-91
2023/06/29 00:24:29;;;;;;;;;;;23.70;86.70;23.70;99425.00;;;;342239;28;96289;-92
2023/06/29 00:24:43;;;;;;;;;;;23.70;86.70;23.60;99432.00;;;;344449;28;82635;-91
2023/06/29 00:24:56;;;;;;;;;;;23.70;86.70;23.60;99423.00;;;;342533;28;96633;-91
2023/06/29 00:25:10;;;;;;;;;;;23.70;86.70;23.70;99425.00;;;;343264;28;83529;-92
2023/06/29 00:25:21;;;;;;;;;;;23.70;86.80;23.70;99427.00;;;;341214;28;95248;-93
2023/06/29 00:25:34;;;;;;;;;;;23.70;86.90;23.70;99424.00;;;;343246;28;83458;-91
2023/06/29 00:25:47;;;;;;;;;;;23.70;87.00;23.70;99420.00;;;;343868;28;96711;-92
2023/06/29 00:26:02;;;;;;;;;;;23.70;86.90;23.70;99431.00;;;;341888;28;83448;-92
2023/06/29 00:26:13;;;;;;;;;;;23.70;86.70;23.70;99416.00;;;;343659;28;95232;-92
2023/06/29 00:26:28;;;;;;;;;;;23.70;86.70;23.70;99417.00;;;;341698;28;83636;-92
2023/06/29 00:26:40;;;;;;;;;;;23.70;86.70;23.60;99418.00;;;;339866;28;95419;-91
2023/06/29 00:26:52;;;;;;;;;;;23.70;86.70;23.60;99420.00;;;;343077;28;82546;-91
2023/06/29 00:27:05;;;;;;;;;;;23.70;86.70;23.70;99422.00;;;;342436;28;96820;-92
2023/06/29 00:27:17;;;;;;;;;;;23.70;86.70;23.70;99425.00;;;;341985;28;83423;-91
2023/06/29 00:27:29;;;;;;;;;;;23.70;86.70;23.70;99423.00;;;;342269;28;95997;-92
2023/06/29 00:27:41;;;;;;;;;;;23.70;86.80;23.70;99427.00;;;;343110;28;82651;-92
2023/06/29 00:27:53;;;;;;;;;;;23.70;86.80;23.70;99416.00;;;;339890;28;95589;-92
2023/06/29 00:28:05;;;;;;;;;;;23.70;86.80;23.70;99427.00;;;;341972;28;83490;-92
2023/06/29 00:28:17;;;;;;;;;;;23.70;86.90;23.60;99422.00;;;;341314;28;92379;-91
2023/06/29 00:28:29;;;;;;;;;;;23.70;86.80;23.70;99414.00;;;;341863;28;83485;-91
2023/06/29 00:28:40;;;;;;;;;;;23.70;86.70;23.70;99427.00;;;;343863;28;96725;-92
2023/06/29 00:28:52;;;;;;;;;;;23.70;86.60;23.70;99422.00;;;;343342;28;82564;-92
2023/06/29 00:29:05;;;;;;;;;;;23.70;86.70;23.70;99427.00;;;;342510;28;95202;-92
2023/06/29 00:29:17;;;;;;;;;;;23.70;86.80;23.70;99429.00;;;;341855;28;83519;-92
2023/06/29 00:29:29;;;;;;;;;;;23.70;86.80;23.70;99424.00;;;;341205;28;95337;-92
2023/06/29 00:29:44;;;;;;;;;;;23.70;86.90;23.70;99424.00;;;;344704;28;83318;-92
2023/06/29 00:29:56;;;;;;;;;;;23.70;86.90;23.70;99423.00;;;;343617;28;95559;-92
2023/06/29 00:30:08;;;;;;;;;;;23.70;86.70;23.70;99415.00;;;;341738;28;83509;-92
2023/06/29 00:30:20;;;;;;;;;;;23.70;86.70;23.60;99418.00;;;;341193;28;92709;-92
2023/06/29 00:30:32;;;;;;;;;;;23.70;86.70;23.60;99418.00;;;;343359;28;82508;-92
2023/06/29 00:30:44;;;;;;;;;;;23.70;86.60;23.60;99421.00;;;;339870;28;96642;-92
2023/06/29 00:30:56;;;;;;;;;;;23.70;86.60;23.60;99421.00;;;;341724;28;83518;-92
2023/06/29 00:31:08;;;;;;;;;;;23.70;86.70;23.60;99418.00;;;;340938;28;96265;-92
2023/06/29 00:31:23;;;;;;;;;;;23.70;86.70;23.60;99420.00;;;;343421;28;83162;-92
2023/06/29 00:31:35;;;;;;;;;;;23.70;86.60;23.70;99416.00;;;;339815;28;96726;-92
2023/06/29 00:31:47;;;;;;;;;;;23.70;86.80;23.70;99412.00;;;;342018;28;83422;-92
2023/06/29 00:31:59;;;;;;;;;;;23.70;86.70;23.60;99420.00;;;;342450;28;94967;-92
2023/06/29 00:32:10;;;;;;;;;;;23.70;86.70;23.60;99421.00;;;;344678;28;83418;-92
2023/06/29 00:32:22;;;;;;;;;;;23.70;86.70;23.60;99411.00;;;;339851;28;94800;-92
2023/06/29 00:32:34;;;;;;;;;;;23.70;86.70;23.60;99416.00;;;;340588;28;83374;-92
2023/06/29 00:32:46;;;;;;;;;;;23.70;86.70;23.60;99415.00;;;;345309;28;95655;-91
2023/06/29 00:32:58;;;;;;;;;;;23.70;86.80;23.60;99418.00;;;;343318;28;83376;-91
2023/06/29 00:33:10;;;;;;;;;;;23.70;86.90;23.60;99414.00;;;;339751;28;95460;-91
2023/06/29 00:33:22;;;;;;;;;;;23.70;86.80;23.60;99416.00;;;;343283;28;83496;-92
2023/06/29 00:33:34;;;;;;;;;;;23.70;86.70;23.70;99417.00;;;;343870;28;96459;-91
2023/06/29 00:33:46;;;;;;;;;;;23.70;86.70;23.60;99412.00;;;;344592;28;82530;-92
2023/06/29 00:33:57;;;;;;;;;;;23.70;86.90;23.60;99416.00;;;;343990;28;95191;-92
2023/06/29 00:34:09;;;;;;;;;;;23.70;86.80;23.50;99415.00;;;;341935;28;82570;-92
2023/06/29 00:34:21;;;;;;;;;;;23.70;86.80;23.60;99412.00;;;;342538;28;95924;-92
2023/06/29 00:34:33;;;;;;;;;;;23.70;86.80;23.60;99408.00;;;;343347;28;82541;-92
2023/06/29 00:34:45;;;;;;;;;;;23.70;86.80;23.60;99410.00;;;;341174;28;95598;-91
2023/06/29 00:34:57;;;;;;;;;;;23.60;86.80;23.60;99411.00;;;;340616;28;82433;-91
2023/06/29 00:35:08;;;;;;;;;;;23.70;87.50;23.60;99416.00;;;;342422;28;97091;-92
2023/06/29 00:35:20;;;;;;;;;;;23.60;86.80;23.60;99408.00;;;;340580;28;83505;-92
2023/06/29 00:35:32;;;;;;;;;;;23.60;86.90;23.60;99413.00;;;;341221;28;95781;-92
2023/06/29 00:35:44;;;;;;;;;;;23.60;87.00;23.60;99405.00;;;;341905;28;84360;-91
2023/06/29 00:35:56;;;;;;;;;;;23.60;86.90;23.60;99412.00;;;;341148;28;96929;-91
2023/06/29 00:36:08;;;;;;;;;;;23.60;87.40;23.60;99414.00;;;;343279;28;83365;-91
2023/06/29 00:36:20;;;;;;;;;;;23.60;86.70;23.50;99416.00;;;;343838;28;95992;-92
2023/06/29 00:36:32;;;;;;;;;;;23.60;86.90;23.60;99410.00;;;;341969;28;82532;-92
2023/06/29 00:36:44;;;;;;;;;;;23.70;86.90;23.60;99410.00;;;;340050;28;96514;-92
2023/06/29 00:36:55;;;;;;;;;;;23.60;87.00;23.60;99411.00;;;;343575;28;82535;-91
2023/06/29 00:37:07;;;;;;;;;;;23.60;87.00;23.60;99412.00;;;;342634;28;96436;-91
2023/06/29 00:37:19;;;;;;;;;;;23.60;87.10;23.70;99420.00;;;;343558;28;82450;-92
2023/06/29 00:37:31;;;;;;;;;;;23.60;87.20;23.70;99412.00;;;;342725;28;96353;-92
2023/06/29 00:37:45;;;;;;;;;;;23.60;87.10;23.70;99415.00;;;;342078;28;83675;-92
2023/06/29 00:37:58;;;;;;;;;;;23.60;87.10;23.70;99412.00;;;;343856;28;96607;-92
2023/06/29 00:38:09;;;;;;;;;;;23.70;87.10;23.60;99416.00;;;;343464;28;82492;-92
2023/06/29 00:38:21;;;;;;;;;;;23.60;87.00;23.60;99410.00;;;;338608;28;95901;-92
2023/06/29 00:38:33;;;;;;;;;;;23.60;87.00;23.60;99412.00;;;;342119;28;83497;-92
2023/06/29 00:38:45;;;;;;;;;;;23.60;87.00;23.60;99409.00;;;;342786;28;95046;-91
2023/06/29 00:38:57;;;;;;;;;;;23.60;87.00;23.60;99412.00;;;;343642;28;83341;-91
2023/06/29 00:39:09;;;;;;;;;;;23.60;87.00;23.60;99415.00;;;;345396;28;96180;-92
2023/06/29 00:39:21;;;;;;;;;;;23.60;87.00;23.60;99417.00;;;;345039;28;82464;-92
2023/06/29 00:39:33;;;;;;;;;;;23.60;87.00;23.60;99418.00;;;;340098;28;95780;-91
2023/06/29 00:39:44;;;;;;;;;;;23.60;87.10;23.60;99412.00;;;;342264;28;83403;-92
2023/06/29 00:39:56;;;;;;;;;;;23.60;87.10;23.70;99414.00;;;;341609;28;95586;-91
2023/06/29 00:40:09;;;;;;;;;;;23.60;87.10;23.60;99427.00;;;;343741;28;82474;-92
2023/06/29 00:40:21;;;;;;;;;;;23.60;87.10;23.60;99407.00;;;;342063;28;96134;-92
2023/06/29 00:40:32;;;;;;;;;;;23.60;87.00;23.60;99413.00;;;;344477;28;82519;-92
2023/06/29 00:40:44;;;;;;;;;;;23.60;87.10;23.60;99410.00;;;;340884;28;96159;-92
2023/06/29 00:40:56;;;;;;;;;;;23.60;87.20;23.60;99416.00;;;;340289;28;83329;-92
2023/06/29 00:41:08;;;;;;;;;;;23.60;87.10;23.50;99417.00;;;;342138;28;95723;-92
2023/06/29 00:41:20;;;;;;;;;;;23.60;87.40;23.60;99419.00;;;;344348;28;82505;-92
2023/06/29 00:41:32;;;;;;;;;;;23.60;87.10;23.50;99413.00;;;;346434;28;95382;-92
2023/06/29 00:41:43;;;;;;;;;;;23.50;87.10;23.50;99414.00;;;;343151;28;82409;-92
2023/06/29 00:41:55;;;;;;;;;;;23.60;87.10;23.50;99412.00;;;;342824;28;96323;-93
2023/06/29 00:42:07;;;;;;;;;;;23.50;87.10;23.50;99412.00;;;;346096;28;83462;-91
2023/06/29 00:42:19;;;;;;;;;;;23.50;87.10;23.60;99417.00;;;;341132;28;95919;-92
2023/06/29 00:42:31;;;;;;;;;;;23.50;87.10;23.60;99414.00;;;;343055;28;82538;-91
2023/06/29 00:42:43;;;;;;;;;;;23.60;87.20;23.50;99412.00;;;;343590;28;96050;-91
2023/06/29 00:42:55;;;;;;;;;;;23.50;87.20;23.60;99406.00;;;;344411;28;82459;-92
2023/06/29 00:43:08;;;;;;;;;;;23.50;87.20;23.60;99410.00;;;;343344;28;96767;-91
2023/06/29 00:43:20;;;;;;;;;;;23.60;87.20;23.60;99415.00;;;;344146;28;83318;-92
2023/06/29 00:43:32;;;;;;;;;;;23.50;87.20;23.60;99409.00;;;;344868;28;96610;-91
2023/06/29 00:43:44;;;;;;;;;;;23.60;87.30;23.40;99411.00;;;;345296;28;82485;-91
2023/06/29 00:43:55;;;;;;;;;;;23.50;87.40;23.40;99416.00;;;;340441;28;95967;-92
2023/06/29 00:44:08;;;;;;;;;;;23.50;87.40;23.50;99415.00;;;;343719;28;82536;-91
2023/06/29 00:44:20;;;;;;;;;;;23.50;87.30;23.50;99412.00;;;;341645;28;95146;-91
2023/06/29 00:44:32;;;;;;;;;;;23.50;87.40;23.60;99415.00;;;;340777;28;83478;-91
2023/06/29 00:44:46;;;;;;;;;;;23.50;87.30;23.50;99413.00;;;;344133;28;95969;-92
2023/06/29 00:44:57;;;;;;;;;;;23.50;87.40;23.40;99414.00;;;;343684;28;82377;-92
2023/06/29 00:45:10;;;;;;;;;;;23.50;87.50;23.30;99417.00;;;;341492;28;93241;-92
2023/06/29 00:45:21;;;;;;;;;;;23.50;87.60;23.40;99418.00;;;;342097;28;83445;-92
2023/06/29 00:45:34;;;;;;;;;;;23.50;87.60;23.40;99420.00;;;;344077;28;96383;-92
2023/06/29 00:45:45;;;;;;;;;;;23.50;87.50;23.50;99417.00;;;;340764;28;83496;-92
2023/06/29 00:45:57;;;;;;;;;;;23.50;87.60;23.40;99415.00;;;;340075;28;96500;-92
2023/06/29 00:46:10;;;;;;;;;;;23.50;87.70;23.40;99410.00;;;;340918;28;82517;-92
2023/06/29 00:46:22;;;;;;;;;;;23.50;87.70;23.50;99410.00;;;;341311;28;95774;-92
2023/06/29 00:46:34;;;;;;;;;;;23.50;87.60;23.50;99414.00;;;;343535;28;83394;-92
2023/06/29 00:46:46;;;;;;;;;;;23.50;87.60;23.50;99416.00;;;;341388;28;96412;-92
2023/06/29 00:46:58;;;;;;;;;;;23.50;87.50;23.50;99417.00;;;;342308;28;82383;-92
2023/06/29 00:47:10;;;;;;;;;;;23.50;87.60;23.60;99408.00;;;;342650;28;95665;-92
2023/06/29 00:47:22;;;;;;;;;;;23.40;87.50;23.50;99416.00;;;;342162;28;83466;-92
2023/06/29 00:47:34;;;;;;;;;;;23.40;87.40;23.40;99415.00;;;;341419;28;95266;-92
2023/06/29 00:47:46;;;;;;;;;;;23.50;87.50;23.40;99419.00;;;;343448;28;83204;-92
2023/06/29 00:47:57;;;;;;;;;;;23.40;87.60;23.50;99414.00;;;;341265;28;95189;-92
2023/06/29 00:48:09;;;;;;;;;;;23.40;87.50;23.50;99412.00;;;;342171;28;83402;-91
2023/06/29 00:48:21;;;;;;;;;;;23.50;87.50;23.50;99414.00;;;;341304;28;94602;-92
2023/06/29 00:48:36;;;;;;;;;;;23.50;87.50;23.50;99412.00;;;;342081;28;83477;-92
2023/06/29 00:48:48;;;;;;;;;;;23.40;87.50;23.50;99410.00;;;;340064;28;96844;-92
2023/06/29 00:49:00;;;;;;;;;;;23.40;87.50;23.50;99407.00;;;;343464;28;83466;-91
2023/06/29 00:49:12;;;;;;;;;;;23.50;87.50;23.50;99412.00;;;;342560;28;95560;-92
2023/06/29 00:49:24;;;;;;;;;;;23.40;88.10;23.50;99418.00;;;;343561;28;82553;-92
2023/06/29 00:49:36;;;;;;;;;;;23.50;87.50;23.50;99408.00;;;;344058;28;96773;-92
2023/06/29 00:49:48;;;;;;;;;;;23.40;87.50;23.40;99410.00;;;;340727;28;83438;-92
2023/06/29 00:50:00;;;;;;;;;;;23.40;87.50;23.30;99413.00;;;;341403;28;95740;-92
2023/06/29 00:50:12;;;;;;;;;;;23.40;87.50;23.30;99414.00;;;;344640;28;83533;-92
2023/06/29 00:50:24;;;;;;;;;;;23.40;87.50;23.40;99409.00;;;;342764;28;95919;-92
2023/06/29 00:50:36;;;;;;;;;;;23.40;87.50;23.30;99411.00;;;;340748;28;83394;-92
2023/06/29 00:50:48;;;;;;;;;;;23.40;87.50;23.40;99410.00;;;;343115;28;94976;-91
2023/06/29 00:50:59;;;;;;;;;;;23.40;87.50;23.50;99407.00;;;;342366;28;83360;-92
2023/06/29 00:51:11;;;;;;;;;;;23.40;87.50;23.40;99404.00;;;;341543;28;95519;-92
2023/06/29 00:51:23;;;;;;;;;;;23.40;87.50;23.40;99413.00;;;;342299;28;83434;-92
2023/06/29 00:51:35;;;;;;;;;;;23.40;87.50;23.50;99410.00;;;;340260;28;95483;-91
2023/06/29 00:51:49;;;;;;;;;;;23.40;87.50;23.50;99404.00;;;;345064;28;83407;-92
2023/06/29 00:52:00;;;;;;;;;;;23.40;87.70;23.50;99407.00;;;;344330;28;96576;-92
2023/06/29 00:52:12;;;;;;;;;;;23.40;87.70;23.40;99408.00;;;;346469;28;83317;-92
2023/06/29 00:52:24;;;;;;;;;;;23.40;87.60;23.50;99410.00;;;;341354;28;94494;-92
2023/06/29 00:52:36;;;;;;;;;;;23.40;87.60;23.50;99405.00;;;;343539;28;82564;-92
2023/06/29 00:52:48;;;;;;;;;;;23.40;87.60;23.50;99403.00;;;;342884;28;95782;-92
2023/06/29 00:52:59;;;;;;;;;;;23.40;87.60;23.50;99405.00;;;;342342;28;83353;-90
2023/06/29 00:53:11;;;;;;;;;;;23.40;87.50;23.50;99405.00;;;;342846;28;96679;-92
2023/06/29 00:53:23;;;;;;;;;;;23.40;87.50;23.50;99403.00;;;;340967;28;83373;-91
2023/06/29 00:53:37;;;;;;;;;;;23.40;87.50;23.50;99412.00;;;;340037;28;96477;-92
2023/06/29 00:53:48;;;;;;;;;;;23.40;87.50;23.50;99401.00;;;;340900;28;82543;-92
2023/06/29 00:54:00;;;;;;;;;;;23.40;87.50;23.60;99409.00;;;;340225;28;97191;-92
2023/06/29 00:54:12;;;;;;;;;;;23.40;87.60;23.50;99405.00;;;;340801;28;83445;-91
2023/06/29 00:54:24;;;;;;;;;;;23.40;87.60;23.60;99403.00;;;;340104;28;94759;-92
2023/06/29 00:54:36;;;;;;;;;;;23.40;87.60;23.60;99400.00;;;;343472;28;82535;-92
2023/06/29 00:54:48;;;;;;;;;;;23.40;87.50;23.60;99402.00;;;;344079;28;95490;-91
2023/06/29 00:54:59;;;;;;;;;;;23.40;87.50;23.60;99405.00;;;;339475;28;83354;-92
2023/06/29 00:55:11;;;;;;;;;;;23.40;87.50;23.60;99406.00;;;;342758;28;95994;-92
2023/06/29 00:55:23;;;;;;;;;;;23.40;87.40;23.50;99406.00;;;;343474;28;83349;-92
2023/06/29 00:55:36;;;;;;;;;;;23.40;87.40;23.40;99412.00;;;;341167;28;95679;-92
2023/06/29 00:55:48;;;;;;;;;;;23.40;87.50;23.40;99404.00;;;;343416;28;83429;-92
2023/06/29 00:56:01;;;;;;;;;;;23.40;87.60;23.50;99405.00;;;;341338;28;96639;-92
2023/06/29 00:56:12;;;;;;;;;;;23.40;87.50;23.50;99415.00;;;;343498;28;82447;-92
2023/06/29 00:56:25;;;;;;;;;;;23.40;87.40;23.40;99409.00;;;;342655;28;95330;-92
2023/06/29 00:56:36;;;;;;;;;;;23.40;87.40;23.50;99405.00;;;;344804;28;83452;-92
2023/06/29 00:56:48;;;;;;;;;;;23.40;87.50;23.50;99409.00;;;;344067;28;97200;-92
2023/06/29 00:57:00;;;;;;;;;;;23.40;87.50;23.40;99411.00;;;;344838;28;82629;-92
2023/06/29 00:57:12;;;;;;;;;;;23.40;87.50;23.40;99408.00;;;;344109;28;95300;-92
2023/06/29 00:57:24;;;;;;;;;;;23.40;87.60;23.40;99417.00;;;;343504;28;82507;-93
2023/06/29 00:57:38;;;;;;;;;;;23.40;87.60;23.40;99407.00;;;;341377;28;95035;-92
2023/06/29 00:57:50;;;;;;;;;;;23.40;87.80;23.50;99410.00;;;;343468;28;83437;-92
2023/06/29 00:58:01;;;;;;;;;;;23.40;87.80;23.50;99402.00;;;;344051;28;96461;-92
2023/06/29 00:58:13;;;;;;;;;;;23.30;87.70;23.50;99403.00;;;;344824;28;83456;-92
2023/06/29 00:58:25;;;;;;;;;;;23.40;87.80;23.50;99412.00;;;;339905;28;95699;-92
2023/06/29 00:58:37;;;;;;;;;;;23.40;87.80;23.60;99407.00;;;;341856;28;82655;-92
2023/06/29 00:58:49;;;;;;;;;;;23.40;87.70;23.50;99410.00;;;;341449;28;95183;-92
2023/06/29 00:59:01;;;;;;;;;;;23.40;87.60;23.50;99411.00;;;;340663;28;83373;-91
2023/06/29 00:59:13;;;;;;;;;;;23.40;87.60;23.40;99405.00;;;;341307;28;96421;-92
2023/06/29 00:59:25;;;;;;;;;;;23.40;87.50;23.40;99410.00;;;;339580;28;83401;-92
2023/06/29 00:59:37;;;;;;;;;;;23.40;87.50;23.30;99410.00;;;;341372;28;95509;-92
2023/06/29 00:59:48;;;;;;;;;;;23.40;87.50;23.30;99408.00;;;;344768;28;82557;-92
2023/06/29 01:00:00;;;;;;;;;;;23.40;87.60;23.30;99412.00;;;;342756;28;95938;-92
2023/06/29 01:00:13;;;;;;;;;;;23.30;87.50;23.40;99405.00;;;;343565;28;82475;-92
2023/06/29 01:00:25;;;;;;;;;;;23.40;87.60;23.40;99403.00;;;;341361;28;96191;-92